Flight Track Log - Related Links

Times and Time Zones

All times are in EDT time to prevent confusion due to time zone crossing. See the AAY813 flight status page for this flight to view local times or setup timezone preferences in your user account.

Time Position Orientation Groundspeed Altitude Reporting Facility
EDT Latitude Longitude Course Direction KTS MPH feet Rate Location/Type
Sun 12:13:28 PM 37.2758 -80.0786 206° Southwest 202 232 4,300  Level Washington Center
Sun 12:14:26 PM 37.2517 -80.1633 250° West 231 266 7,100 2,723 Climbing Washington Center
Sun 12:15:27 PM 37.2253 -80.2556 250° West 262 302 9,700 2,132 Climbing Washington Center
Sun 12:16:27 PM 37.1914 -80.3708 250° West 301 346 11,400 1,934 Climbing Washington Center
Sun 12:17:28 PM 37.1533 -80.4883 248° West 341 392 13,600 2,178 Climbing Washington Center
Sun 12:18:00 PM 37.0265 -80.7351 206° Southwest  Level FlightAware Approximate
Sun 12:18:42 PM 37.1122 -80.6372 251° West 368 423 16,300  Level Atlanta Center
Sun 12:19:42 PM 37.0336 -80.7342 225° Southwest 387 445 18,000 2,000 Climbing Atlanta Center
Sun 12:20:42 PM 36.9206 -80.8011 205° Southwest 410 472 20,300 2,000 Climbing Atlanta Center
Sun 12:21:42 PM 36.8139 -80.8625 205° Southwest 410 472 22,000 1,750 Climbing Atlanta Center
Sun 12:22:42 PM 36.7089 -80.9186 203° Southwest 415 478 23,800 1,000 Climbing Atlanta Center
Sun 12:23:42 PM 36.6044 -80.9900 209° Southwest 421 484 24,000 100 Climbing Atlanta Center
Sun 12:24:42 PM 36.5017 -81.0506 205° Southwest 421 484 24,000  Level Atlanta Center
Sun 12:25:42 PM 36.3947 -81.1164 206° Southwest 426 490 24,000  Level Atlanta Center
Sun 12:26:42 PM 36.2919 -81.1819 207° Southwest 420 483 24,000  Level Atlanta Center
Sun 12:27:42 PM 36.1994 -81.2367 206° Southwest 420 483 24,000  Level Atlanta Center
Sun 12:28:42 PM 36.0925 -81.2994 205° Southwest 420 483 24,000  Level Atlanta Center
Sun 12:29:42 PM 35.9875 -81.3672 208° Southwest 420 483 24,000  Level Atlanta Center
Sun 12:30:42 PM 35.8844 -81.4297 206° Southwest 420 483 24,000  Level Atlanta Center
Sun 12:31:42 PM 35.7794 -81.4919 206° Southwest 420 483 24,000  Level Atlanta Center
Sun 12:32:42 PM 35.6764 -81.5514 205° Southwest 420 483 24,000  Level Atlanta Center
Sun 12:33:42 PM 35.5711 -81.6158 206° Southwest 420 483 24,000  Level Atlanta Center
Sun 12:34:42 PM 35.4661 -81.6775 206° Southwest 420 483 24,000  Level Atlanta Center
Sun 12:35:42 PM 35.3564 -81.7264 200° South 420 483 24,000  Level Atlanta Center
Sun 12:36:42 PM 35.2400 -81.7475 188° South 420 483 24,000  Level Atlanta Center
Sun 12:37:42 PM 35.1303 -81.7939 199° South 425 489 24,000  Level Atlanta Center
Sun 12:38:42 PM 35.0247 -81.8475 203° Southwest 425 489 24,000  Level Atlanta Center
Sun 12:39:42 PM 34.9131 -81.9008 201° Southwest 430 495 24,000  Level Atlanta Center
Sun 12:40:42 PM 34.8075 -81.9517 202° Southwest 423 487 24,000  Level Atlanta Center
Sun 12:41:42 PM 34.6978 -82.0025 201° Southwest 423 487 24,000  Level Atlanta Center
Sun 12:42:42 PM 34.5900 -82.0556 202° Southwest 423 487 24,000  Level Atlanta Center
Sun 12:43:42 PM 34.4803 -82.1061 201° Southwest 423 487 24,000  Level Atlanta Center
Sun 12:44:42 PM 34.3706 -82.1614 203° Southwest 428 493 24,000  Level Atlanta Center
Sun 12:45:42 PM 34.2608 -82.2142 202° Southwest 428 493 24,000  Level Atlanta Center
Sun 12:46:42 PM 34.1508 -82.2692 202° Southwest 428 493 24,000  Level Atlanta Center
Sun 12:47:42 PM 34.0244 -82.3294 202° Southwest 447 514 24,000  Level Atlanta Center
Sun 12:48:42 PM 33.9167 -82.3842 203° Southwest 436 502 24,000  Level Atlanta Center
Sun 12:49:42 PM 33.8172 -82.4336 202° Southwest 429 494 24,000  Level Atlanta Center
Sun 12:50:42 PM 33.7031 -82.4881 202° Southwest 434 499 24,000  Level Atlanta Center
Sun 12:51:42 PM 33.5908 -82.5375 200° South 441 507 24,000  Level Atlanta Center
Sun 12:52:42 PM 33.4789 -82.5894 201° Southwest 441 507 24,000  Level Atlanta Center
Sun 12:53:42 PM 33.3625 -82.6286 196° South 441 507 24,000  Level Atlanta Center
Sun 12:54:42 PM 33.2333 -82.6631 193° South 436 502 24,000  Level Atlanta Center
Sun 12:55:42 PM 33.1144 -82.6772 186° South 431 496 24,000  Level Atlanta Center
Sun 12:56:42 PM 33.0017 -82.6692 177° South 437 503 24,000  Level Atlanta Center
Sun 12:57:42 PM 32.8786 -82.6611 177° South 442 509 24,000  Level Atlanta Center
Sun 12:58:42 PM 32.7575 -82.6556 178° South 442 509 24,000  Level Atlanta Center
Sun 12:59:42 PM 32.6364 -82.6525 179° South 442 509 24,000  Level Atlanta Center
Sun 01:00:42 PM 32.5172 -82.6494 179° South 437 503 24,000  Level Atlanta Center
Sun 01:01:42 PM 32.3919 -82.6417 177° South 442 509 24,000  Level Atlanta Center
Sun 01:04:00 PM 32.0994 -82.6253 177° South 440 506 24,000  Level Jacksonville Center
Sun 01:05:00 PM 31.9761 -82.6208 178° South 442 509 24,000  Level Jacksonville Center
Sun 01:06:01 PM 31.8553 -82.6136 177° South 442 509 24,000  Level Jacksonville Center
Sun 01:07:00 PM 31.7297 -82.6092 178° South 442 509 24,000  Level Jacksonville Center
Sun 01:08:00 PM 31.6317 -82.6047 178° South 442 509 24,000  Level Jacksonville Center
Sun 01:09:01 PM 31.4981 -82.5978 177° South 442 509 24,000  Level Jacksonville Center
Sun 01:10:00 PM 31.3747 -82.5908 177° South 442 509 24,000  Level Jacksonville Center
Sun 01:11:01 PM 31.2411 -82.5889 179° South 442 509 24,000  Level Jacksonville Center
Sun 01:12:01 PM 31.1181 -82.5844 178° South 442 509 24,000  Level Jacksonville Center
Sun 01:13:00 PM 30.9969 -82.5775 177° South 442 509 24,000  Level Jacksonville Center
Sun 01:14:00 PM 30.8736 -82.5731 178° South 442 509 24,000  Level Jacksonville Center
Sun 01:15:01 PM 30.7547 -82.5661 177° South 442 509 24,000 -400 Level Jacksonville Center
Sun 01:16:00 PM 30.6314 -82.5617 178° South 442 509 23,200 -555 Descending Jacksonville Center
Sun 01:17:00 PM 30.5144 -82.5550 177° South 437 503 22,900 -100 Descending Jacksonville Center
Sun 01:18:00 PM 30.3975 -82.5336 171° South 437 503 23,000 50 Climbing Jacksonville Center
Sun 01:19:00 PM 30.2783 -82.5053 168° South 432 497 23,000  Level Jacksonville Center
Sun 01:20:00 PM 30.1614 -82.4842 171° South 432 497 23,000 -50 Level Jacksonville Center
Sun 01:21:01 PM 30.0425 -82.4678 173° South 427 491 22,900  Descending Jacksonville Center
Sun 01:22:01 PM 29.9358 -82.4492 171° South 427 491 23,000 50 Climbing Jacksonville Center
Sun 01:23:00 PM 29.8167 -82.4306 172° South 427 491 23,000  Level Jacksonville Center
Sun 01:24:00 PM 29.7113 -82.3865 166° South  Level FlightAware Approximate
Sun 01:24:01 PM 29.6997 -82.4094 166° South 427 491 23,000  Level Jacksonville Center
Sun 01:25:01 PM 29.5703 -82.3886 172° South 427 491 23,000 -101 Level Jacksonville Center
Sun 01:26:00 PM 29.4492 -82.3703 172° South 427 491 22,800 -1,008 Descending Jacksonville Center
Sun 01:27:00 PM 29.3281 -82.3519 172° South 427 491 21,000 -1,750 Descending Jacksonville Center
Sun 01:28:00 PM 29.2153 -82.3333 172° South 427 491 19,300 -1,600 Descending Jacksonville Center
Sun 01:29:00 PM 29.1003 -82.3150 172° South 427 491 17,800 -1,600 Descending Jacksonville Center
Sun 01:30:00 PM 28.9917 -82.2967 172° South 416 479 16,100 -1,650 Descending Jacksonville Center
Sun 01:31:00 PM 28.8956 -82.2856 174° South 397 457 14,500 -1,051 Descending Jacksonville Center
Sun 01:32:57 PM 28.7000 -82.2500 171° South 315 362 13,000 -607 Descending Tampa TRACON
Sun 01:33:58 PM 28.6167 -82.2667 190° South 331 381 12,700 -709 Descending Tampa TRACON
Sun 01:35:04 PM 28.5333 -82.3500 221° Southwest 360 414 11,500 -1,056 Descending Tampa TRACON
Sun 01:36:03 PM 28.5000 -82.4500 249° West 358 412 10,500 -950 Descending Tampa TRACON
Sun 01:37:04 PM 28.4500 -82.5333 236° Southwest 323 372 9,600 -991 Descending Tampa TRACON
Sun 01:37:58 PM 28.4000 -82.6000 230° Southwest 299 344 8,600 -1,053 Descending Tampa TRACON
Sun 01:38:58 PM 28.3500 -82.6667 230° Southwest 306 352 7,600 -1,333 Descending Tampa TRACON
Sun 01:40:04 PM 28.2833 -82.7500 228° Southwest 297 342 5,800 -1,381 Descending Tampa TRACON
Sun 01:41:04 PM 28.2167 -82.7833 204° Southwest 278 320 4,700 -1,000 Descending Tampa TRACON
Sun 01:42:04 PM 28.1333 -82.7833 180° South 270 311 3,800 -900 Descending Tampa TRACON
Sun 01:43:04 PM 28.0667 -82.7833 180° South 273 314 2,900 -900 Descending Tampa TRACON

Login

Don't have an account? Register now (free) for customized features, flight alerts, and more!